UTDD Airport Information

Runway Information
Runway 09 Length 10170 ft width 147 ft
Elevation 2575 ft Threshold 0 ft Heading 90
Runway 27 Length 10170 ft Width 147 ft
Elevation 2543 ft Threshold 1335 ft Heading 270
Airport Frequencies
Type APP Name APP Frequency 127.1 MHZ
Type ATIS Name ATIS Frequency 126.2 MHZ
Type GND Name GND Frequency 121.7 MHZ
Type TWR Name TWR Frequency 119.2 MHZ
Airport Navaids
Type VOR-DME Name Dushanbe Frequency 113600 KHZ
Type NDB Name Dushanbe Frequency 372 KHZ
Type NDB Name Dushanbe Frequency 420 KHZ
Airport Weather Information & NOTAM
ADDS - METARS form results

(0123 UTC 25 May 2019)
Data provider http://aviationweather.gov/metar/data/
 
METAR text: UTDD 250100Z VRB02MPS 4300 BR FEW066 BKN100 BKN130 11/10 Q1019 R09/19//60 NOSIG RMK QFE696/0927
Conditions at: UTDD (DUSHANBE , TJ) observed 0100 UTC 25 May 2019
Temperature: 11.0°C (52°F)
Dewpoint: 10.0°C (50°F) [RH = 94%]
Pressure (altimeter): 30.09 inches Hg (1019.0 mb)
Winds: variable direction winds at 5 MPH (4 knots; 2.1 m/s)
Visibility: 2.67 miles (4.30 km)
Ceiling: 10000 feet AGL
Clouds: few clouds at 6600 feet AGL
broken clouds at 10000 feet AGL
broken clouds at 13000 feet AGL
Weather: BR  (mist)

METAR text: UTDD 250030Z 28001MPS 5000 BR FEW066 BKN100 11/10 Q1019 R09/19//60 NOSIG RMK QFE696/0927
Conditions at: UTDD (DUSHANBE , TJ) observed 0030 UTC 25 May 2019
Temperature: 11.0°C (52°F)
Dewpoint: 10.0°C (50°F) [RH = 94%]
Pressure (altimeter): 30.09 inches Hg (1019.0 mb)
Winds: from the W (280 degrees) at 2 MPH (2 knots; 1.0 m/s)
Visibility: 3 miles ( 5 km)
Ceiling: 10000 feet AGL
Clouds: few clouds at 6600 feet AGL
broken clouds at 10000 feet AGL
Weather: BR  (mist)

Forecast for: UTDD (DUSHANBE , TJ)
Text: TAF UTDD 250000Z 2501/2513 VRB02MPS 3100 BR FEW060CB SCT100
Forecast period: 0100 to 0400 UTC 25 May 2019
Forecast type: FROM: standard forecast or significant change
Winds: variable direction winds at 5 MPH (4 knots; 2.1 m/s)
Visibility: 1.93 miles (3.11 km)
Ceiling: at least 12,000 feet AGL
Clouds: few clouds at 6000 feet AGL
scattered clouds at 10000 feet AGL
Weather: BR  (mist)
Text: TEMPO 2501/2513 2400 -SHRA BR
Forecast period: 0100 to 1300 UTC 25 May 2019
Forecast type: TEMPORARY: The following changes expected for less than half the time period
Visibility: 1.49 miles (2.40 km)
Ceiling: unknown
Clouds: missing
Weather: -SHRA BR  (light rain showers, mist)
Text: PROB40
Forecast period: 0100 to 1300 UTC 25 May 2019
Forecast type: TEMPORARY: The following changes expected for less than half the time period
Visibility: missing
Ceiling: unknown
Clouds: missing
Weather: TS  (thunderstorm)
Text: TEMPO 2501/2513 TS
Forecast period: 0400 to 1300 UTC 25 May 2019
Forecast type: BECOMING: Conditions expected to become as follows by 0600 UTC 25 May 2019
Winds: variable direction winds at 5 MPH (4 knots; 2.1 m/s)
Visibility: 4 miles (6 km)
Ceiling: at least 12,000 feet AGL
Clouds: few clouds at 6000 feet AGL
scattered clouds at 10000 feet AGL
Weather: BR  (mist)